sensor_id;sensor_type;location;lat;lon;timestamp;P1;durP1;ratioP1;P2;durP2;ratioP2
50681;SDS011;36779;52.168;20.878;2024-02-14T00:02:30;16.10;;;7.20;;
50681;SDS011;36779;52.168;20.878;2024-02-14T00:05:03;15.60;;;6.10;;
50681;SDS011;36779;52.168;20.878;2024-02-14T00:07:36;14.90;;;5.80;;
50681;SDS011;36779;52.168;20.878;2024-02-14T00:10:10;14.50;;;6.40;;
50681;SDS011;36779;52.168;20.878;2024-02-14T00:12:45;18.00;;;5.80;;
50681;SDS011;36779;52.168;20.878;2024-02-14T00:15:18;13.60;;;5.30;;
50681;SDS011;36779;52.168;20.878;2024-02-14T00:18:03;15.20;;;5.80;;
50681;SDS011;36779;52.168;20.878;2024-02-14T00:20:39;13.10;;;4.80;;
50681;SDS011;36779;52.168;20.878;2024-02-14T00:23:12;17.90;;;6.20;;
50681;SDS011;36779;52.168;20.878;2024-02-14T00:25:44;14.10;;;6.30;;
50681;SDS011;36779;52.168;20.878;2024-02-14T00:28:18;15.90;;;5.30;;
50681;SDS011;36779;52.168;20.878;2024-02-14T00:30:53;18.50;;;5.80;;
50681;SDS011;36779;52.168;20.878;2024-02-14T00:33:28;16.60;;;5.90;;
50681;SDS011;36779;52.168;20.878;2024-02-14T00:36:04;15.00;;;6.30;;
50681;SDS011;36779;52.168;20.878;2024-02-14T00:38:40;15.10;;;5.70;;
50681;SDS011;36779;52.168;20.878;2024-02-14T00:41:14;15.40;;;5.90;;
50681;SDS011;36779;52.168;20.878;2024-02-14T00:43:46;17.40;;;6.20;;
50681;SDS011;36779;52.168;20.878;2024-02-14T00:46:18;18.20;;;5.80;;
50681;SDS011;36779;52.168;20.878;2024-02-14T00:48:50;14.60;;;6.60;;
50681;SDS011;36779;52.168;20.878;2024-02-14T00:51:24;12.90;;;5.30;;
50681;SDS011;36779;52.168;20.878;2024-02-14T00:53:58;16.60;;;6.30;;
50681;SDS011;36779;52.168;20.878;2024-02-14T00:56:31;14.00;;;5.40;;
50681;SDS011;36779;52.168;20.878;2024-02-14T00:59:03;14.50;;;5.20;;
50681;SDS011;36779;52.168;20.878;2024-02-14T01:01:38;13.60;;;5.60;;
50681;SDS011;36779;52.168;20.878;2024-02-14T01:04:10;17.20;;;5.50;;
50681;SDS011;36779;52.168;20.878;2024-02-14T01:06:43;17.30;;;5.90;;
50681;SDS011;36779;52.168;20.878;2024-02-14T01:09:19;14.20;;;5.60;;
50681;SDS011;36779;52.168;20.878;2024-02-14T01:11:52;17.30;;;6.40;;
50681;SDS011;36779;52.168;20.878;2024-02-14T01:14:25;17.50;;;6.00;;
50681;SDS011;36779;52.168;20.878;2024-02-14T01:16:57;14.50;;;5.20;;
50681;SDS011;36779;52.168;20.878;2024-02-14T01:19:30;15.80;;;5.70;;
50681;SDS011;36779;52.168;20.878;2024-02-14T01:22:08;15.90;;;5.00;;
50681;SDS011;36779;52.168;20.878;2024-02-14T01:24:40;15.40;;;4.90;;
50681;SDS011;36779;52.168;20.878;2024-02-14T01:27:12;14.30;;;5.30;;
50681;SDS011;36779;52.168;20.878;2024-02-14T01:29:46;16.60;;;6.00;;
50681;SDS011;36779;52.168;20.878;2024-02-14T01:32:18;14.00;;;5.80;;
50681;SDS011;36779;52.168;20.878;2024-02-14T01:34:51;11.20;;;5.10;;
50681;SDS011;36779;52.168;20.878;2024-02-14T01:37:23;16.30;;;5.50;;
50681;SDS011;36779;52.168;20.878;2024-02-14T01:39:58;14.00;;;5.90;;
50681;SDS011;36779;52.168;20.878;2024-02-14T01:42:33;13.70;;;5.80;;
50681;SDS011;36779;52.168;20.878;2024-02-14T01:45:15;20.10;;;5.60;;
50681;SDS011;36779;52.168;20.878;2024-02-14T01:47:48;19.40;;;7.10;;
50681;SDS011;36779;52.168;20.878;2024-02-14T01:50:22;19.40;;;6.30;;
50681;SDS011;36779;52.168;20.878;2024-02-14T01:52:59;19.00;;;6.10;;
50681;SDS011;36779;52.168;20.878;2024-02-14T01:55:40;15.60;;;6.40;;
50681;SDS011;36779;52.168;20.878;2024-02-14T01:58:14;16.50;;;5.90;;
50681;SDS011;36779;52.168;20.878;2024-02-14T02:00:47;21.20;;;7.30;;
50681;SDS011;36779;52.168;20.878;2024-02-14T02:03:23;17.60;;;6.70;;
50681;SDS011;36779;52.168;20.878;2024-02-14T02:05:58;18.40;;;6.50;;
50681;SDS011;36779;52.168;20.878;2024-02-14T02:08:32;16.00;;;5.70;;
50681;SDS011;36779;52.168;20.878;2024-02-14T02:11:05;17.50;;;6.80;;
50681;SDS011;36779;52.168;20.878;2024-02-14T02:13:38;17.70;;;5.70;;
50681;SDS011;36779;52.168;20.878;2024-02-14T02:16:10;14.80;;;5.90;;
50681;SDS011;36779;52.168;20.878;2024-02-14T02:18:45;14.40;;;6.20;;
50681;SDS011;36779;52.168;20.878;2024-02-14T02:21:20;16.00;;;6.80;;
50681;SDS011;36779;52.168;20.878;2024-02-14T02:23:55;15.00;;;6.00;;
50681;SDS011;36779;52.168;20.878;2024-02-14T02:26:27;15.90;;;6.30;;
50681;SDS011;36779;52.168;20.878;2024-02-14T02:29:00;18.60;;;6.50;;
50681;SDS011;36779;52.168;20.878;2024-02-14T02:31:32;15.40;;;6.50;;
50681;SDS011;36779;52.168;20.878;2024-02-14T02:34:05;15.80;;;6.40;;
50681;SDS011;36779;52.168;20.878;2024-02-14T02:36:41;13.00;;;6.10;;
50681;SDS011;36779;52.168;20.878;2024-02-14T02:39:15;13.40;;;6.20;;
50681;SDS011;36779;52.168;20.878;2024-02-14T02:41:49;14.80;;;6.30;;
50681;SDS011;36779;52.168;20.878;2024-02-14T02:44:24;22.90;;;7.30;;
50681;SDS011;36779;52.168;20.878;2024-02-14T02:46:59;20.40;;;6.50;;
50681;SDS011;36779;52.168;20.878;2024-02-14T02:49:31;19.60;;;6.60;;
50681;SDS011;36779;52.168;20.878;2024-02-14T02:52:06;18.70;;;6.40;;
50681;SDS011;36779;52.168;20.878;2024-02-14T02:54:39;15.80;;;6.10;;
50681;SDS011;36779;52.168;20.878;2024-02-14T02:57:18;19.00;;;7.40;;
50681;SDS011;36779;52.168;20.878;2024-02-14T02:59:51;21.40;;;6.40;;
50681;SDS011;36779;52.168;20.878;2024-02-14T03:02:26;18.80;;;7.20;;
50681;SDS011;36779;52.168;20.878;2024-02-14T03:04:59;20.20;;;7.20;;
50681;SDS011;36779;52.168;20.878;2024-02-14T03:07:34;19.50;;;7.00;;
50681;SDS011;36779;52.168;20.878;2024-02-14T03:10:09;17.30;;;5.80;;
50681;SDS011;36779;52.168;20.878;2024-02-14T03:12:46;14.40;;;5.80;;
50681;SDS011;36779;52.168;20.878;2024-02-14T03:15:21;14.90;;;6.00;;
50681;SDS011;36779;52.168;20.878;2024-02-14T03:17:56;15.00;;;5.80;;
50681;SDS011;36779;52.168;20.878;2024-02-14T03:20:30;20.60;;;6.40;;
50681;SDS011;36779;52.168;20.878;2024-02-14T03:23:04;18.50;;;7.70;;
50681;SDS011;36779;52.168;20.878;2024-02-14T03:25:39;21.40;;;7.60;;
50681;SDS011;36779;52.168;20.878;2024-02-14T03:28:11;22.20;;;7.60;;
50681;SDS011;36779;52.168;20.878;2024-02-14T03:30:46;19.10;;;7.90;;
50681;SDS011;36779;52.168;20.878;2024-02-14T03:33:18;22.60;;;7.10;;
50681;SDS011;36779;52.168;20.878;2024-02-14T03:35:51;15.20;;;7.10;;
50681;SDS011;36779;52.168;20.878;2024-02-14T03:38:27;21.00;;;7.20;;
50681;SDS011;36779;52.168;20.878;2024-02-14T03:41:01;15.60;;;6.30;;
50681;SDS011;36779;52.168;20.878;2024-02-14T03:43:34;20.80;;;7.10;;
50681;SDS011;36779;52.168;20.878;2024-02-14T03:46:06;15.20;;;6.60;;
50681;SDS011;36779;52.168;20.878;2024-02-14T03:48:38;17.40;;;6.50;;
50681;SDS011;36779;52.168;20.878;2024-02-14T03:51:11;17.50;;;6.60;;
50681;SDS011;36779;52.168;20.878;2024-02-14T03:53:44;19.60;;;7.30;;
50681;SDS011;36779;52.168;20.878;2024-02-14T03:56:17;18.30;;;6.20;;
50681;SDS011;36779;52.168;20.878;2024-02-14T03:58:49;16.00;;;6.40;;
50681;SDS011;36779;52.168;20.878;2024-02-14T04:01:22;17.60;;;7.20;;
50681;SDS011;36779;52.168;20.878;2024-02-14T04:03:54;20.40;;;7.60;;
50681;SDS011;36779;52.168;20.878;2024-02-14T04:06:31;16.60;;;7.20;;
50681;SDS011;36779;52.168;20.878;2024-02-14T04:09:05;19.60;;;7.30;;
50681;SDS011;36779;52.168;20.878;2024-02-14T04:11:39;20.00;;;7.20;;
50681;SDS011;36779;52.168;20.878;2024-02-14T04:14:12;18.80;;;7.40;;
50681;SDS011;36779;52.168;20.878;2024-02-14T04:16:45;17.50;;;6.10;;
50681;SDS011;36779;52.168;20.878;2024-02-14T04:19:17;18.40;;;7.00;;
50681;SDS011;36779;52.168;20.878;2024-02-14T04:21:51;16.40;;;7.00;;
50681;SDS011;36779;52.168;20.878;2024-02-14T04:24:24;19.70;;;7.20;;
50681;SDS011;36779;52.168;20.878;2024-02-14T04:26:57;19.20;;;7.60;;
50681;SDS011;36779;52.168;20.878;2024-02-14T04:29:32;22.80;;;7.50;;
50681;SDS011;36779;52.168;20.878;2024-02-14T04:32:05;16.60;;;7.10;;
50681;SDS011;36779;52.168;20.878;2024-02-14T04:34:38;14.80;;;6.10;;
50681;SDS011;36779;52.168;20.878;2024-02-14T04:37:14;17.80;;;7.20;;
50681;SDS011;36779;52.168;20.878;2024-02-14T04:39:48;20.70;;;8.30;;
50681;SDS011;36779;52.168;20.878;2024-02-14T04:42:20;22.60;;;7.70;;
50681;SDS011;36779;52.168;20.878;2024-02-14T04:44:53;20.50;;;7.70;;
50681;SDS011;36779;52.168;20.878;2024-02-14T04:47:33;19.90;;;7.90;;
50681;SDS011;36779;52.168;20.878;2024-02-14T04:50:31;23.50;;;8.20;;
50681;SDS011;36779;52.168;20.878;2024-02-14T04:53:19;18.00;;;7.50;;
50681;SDS011;36779;52.168;20.878;2024-02-14T04:55:58;21.90;;;7.80;;
50681;SDS011;36779;52.168;20.878;2024-02-14T04:58:36;15.20;;;6.80;;
50681;SDS011;36779;52.168;20.878;2024-02-14T05:01:11;21.70;;;7.60;;
50681;SDS011;36779;52.168;20.878;2024-02-14T05:06:34;20.70;;;8.00;;
50681;SDS011;36779;52.168;20.878;2024-02-14T05:09:11;21.20;;;8.10;;
50681;SDS011;36779;52.168;20.878;2024-02-14T05:11:44;17.20;;;6.60;;
50681;SDS011;36779;52.168;20.878;2024-02-14T05:14:20;26.20;;;7.90;;
50681;SDS011;36779;52.168;20.878;2024-02-14T05:16:53;18.70;;;7.70;;
50681;SDS011;36779;52.168;20.878;2024-02-14T05:19:37;25.20;;;7.50;;
50681;SDS011;36779;52.168;20.878;2024-02-14T05:22:11;20.00;;;8.20;;
50681;SDS011;36779;52.168;20.878;2024-02-14T05:24:44;22.80;;;7.80;;
50681;SDS011;36779;52.168;20.878;2024-02-14T05:27:17;22.70;;;8.70;;
50681;SDS011;36779;52.168;20.878;2024-02-14T05:29:52;22.70;;;7.70;;
50681;SDS011;36779;52.168;20.878;2024-02-14T05:32:25;22.30;;;7.80;;
50681;SDS011;36779;52.168;20.878;2024-02-14T05:35:05;24.40;;;8.80;;
50681;SDS011;36779;52.168;20.878;2024-02-14T05:37:39;20.90;;;7.60;;
50681;SDS011;36779;52.168;20.878;2024-02-14T05:40:22;21.40;;;8.60;;
50681;SDS011;36779;52.168;20.878;2024-02-14T05:42:55;31.00;;;10.40;;
50681;SDS011;36779;52.168;20.878;2024-02-14T05:45:28;32.30;;;11.60;;
50681;SDS011;36779;52.168;20.878;2024-02-14T05:48:04;32.80;;;13.30;;
50681;SDS011;36779;52.168;20.878;2024-02-14T05:50:50;49.30;;;19.00;;
50681;SDS011;36779;52.168;20.878;2024-02-14T05:53:25;35.60;;;15.10;;
50681;SDS011;36779;52.168;20.878;2024-02-14T05:55:58;44.40;;;15.10;;
50681;SDS011;36779;52.168;20.878;2024-02-14T05:58:30;46.10;;;16.40;;
50681;SDS011;36779;52.168;20.878;2024-02-14T06:01:04;42.90;;;18.30;;
50681;SDS011;36779;52.168;20.878;2024-02-14T06:03:37;27.90;;;12.60;;
50681;SDS011;36779;52.168;20.878;2024-02-14T06:06:11;28.20;;;12.10;;
50681;SDS011;36779;52.168;20.878;2024-02-14T06:08:46;31.00;;;11.80;;
50681;SDS011;36779;52.168;20.878;2024-02-14T06:11:24;32.00;;;12.20;;
50681;SDS011;36779;52.168;20.878;2024-02-14T06:13:59;20.20;;;10.60;;
50681;SDS011;36779;52.168;20.878;2024-02-14T06:16:42;31.00;;;12.10;;
50681;SDS011;36779;52.168;20.878;2024-02-14T06:19:19;25.80;;;10.80;;
50681;SDS011;36779;52.168;20.878;2024-02-14T06:21:52;24.20;;;9.30;;
50681;SDS011;36779;52.168;20.878;2024-02-14T06:24:24;28.10;;;10.40;;
50681;SDS011;36779;52.168;20.878;2024-02-14T06:26:57;26.00;;;10.80;;
50681;SDS011;36779;52.168;20.878;2024-02-14T06:29:29;27.10;;;10.90;;
50681;SDS011;36779;52.168;20.878;2024-02-14T06:32:06;36.70;;;10.90;;
50681;SDS011;36779;52.168;20.878;2024-02-14T06:34:38;24.70;;;9.20;;
50681;SDS011;36779;52.168;20.878;2024-02-14T06:37:11;24.80;;;9.60;;
50681;SDS011;36779;52.168;20.878;2024-02-14T06:39:44;30.70;;;9.50;;
50681;SDS011;36779;52.168;20.878;2024-02-14T06:42:17;31.70;;;10.80;;
50681;SDS011;36779;52.168;20.878;2024-02-14T06:44:49;27.00;;;9.60;;
50681;SDS011;36779;52.168;20.878;2024-02-14T06:47:29;35.30;;;9.80;;
50681;SDS011;36779;52.168;20.878;2024-02-14T06:50:01;26.80;;;9.50;;
50681;SDS011;36779;52.168;20.878;2024-02-14T06:52:34;31.40;;;10.70;;
50681;SDS011;36779;52.168;20.878;2024-02-14T06:55:07;30.30;;;10.40;;
50681;SDS011;36779;52.168;20.878;2024-02-14T06:57:44;29.60;;;10.50;;
50681;SDS011;36779;52.168;20.878;2024-02-14T07:00:16;27.00;;;9.80;;
50681;SDS011;36779;52.168;20.878;2024-02-14T07:02:50;26.40;;;8.50;;
50681;SDS011;36779;52.168;20.878;2024-02-14T07:05:23;20.90;;;7.00;;
50681;SDS011;36779;52.168;20.878;2024-02-14T07:07:56;20.20;;;7.60;;
50681;SDS011;36779;52.168;20.878;2024-02-14T07:10:33;16.70;;;6.60;;
50681;SDS011;36779;52.168;20.878;2024-02-14T07:13:06;23.70;;;8.40;;
50681;SDS011;36779;52.168;20.878;2024-02-14T07:15:38;23.30;;;8.80;;
50681;SDS011;36779;52.168;20.878;2024-02-14T07:18:11;22.00;;;9.20;;
50681;SDS011;36779;52.168;20.878;2024-02-14T07:20:46;21.50;;;9.40;;
50681;SDS011;36779;52.168;20.878;2024-02-14T07:23:18;24.90;;;9.30;;
50681;SDS011;36779;52.168;20.878;2024-02-14T07:25:51;24.90;;;9.10;;
50681;SDS011;36779;52.168;20.878;2024-02-14T07:28:23;21.10;;;8.20;;
50681;SDS011;36779;52.168;20.878;2024-02-14T07:30:59;20.70;;;8.10;;
50681;SDS011;36779;52.168;20.878;2024-02-14T07:33:32;20.80;;;8.60;;
50681;SDS011;36779;52.168;20.878;2024-02-14T07:36:05;18.40;;;8.70;;
50681;SDS011;36779;52.168;20.878;2024-02-14T07:38:38;23.50;;;9.20;;
50681;SDS011;36779;52.168;20.878;2024-02-14T07:41:12;19.20;;;8.30;;
50681;SDS011;36779;52.168;20.878;2024-02-14T07:43:50;21.20;;;8.90;;
50681;SDS011;36779;52.168;20.878;2024-02-14T07:46:24;27.80;;;8.80;;
50681;SDS011;36779;52.168;20.878;2024-02-14T07:49:09;22.80;;;8.30;;
50681;SDS011;36779;52.168;20.878;2024-02-14T07:51:42;23.80;;;9.50;;
50681;SDS011;36779;52.168;20.878;2024-02-14T07:54:14;27.20;;;8.30;;
50681;SDS011;36779;52.168;20.878;2024-02-14T07:56:48;24.90;;;9.00;;
50681;SDS011;36779;52.168;20.878;2024-02-14T07:59:21;25.80;;;8.50;;
50681;SDS011;36779;52.168;20.878;2024-02-14T08:01:54;19.40;;;8.60;;
50681;SDS011;36779;52.168;20.878;2024-02-14T08:04:29;21.30;;;8.80;;
50681;SDS011;36779;52.168;20.878;2024-02-14T08:07:03;22.50;;;8.70;;
50681;SDS011;36779;52.168;20.878;2024-02-14T08:09:36;22.70;;;7.70;;
50681;SDS011;36779;52.168;20.878;2024-02-14T08:12:09;24.40;;;7.80;;
50681;SDS011;36779;52.168;20.878;2024-02-14T08:14:42;21.70;;;8.10;;
50681;SDS011;36779;52.168;20.878;2024-02-14T08:17:14;22.10;;;7.60;;
50681;SDS011;36779;52.168;20.878;2024-02-14T08:19:47;16.90;;;7.30;;
50681;SDS011;36779;52.168;20.878;2024-02-14T08:22:19;20.80;;;8.10;;
50681;SDS011;36779;52.168;20.878;2024-02-14T08:24:52;19.20;;;7.20;;
50681;SDS011;36779;52.168;20.878;2024-02-14T08:27:25;19.20;;;8.60;;
50681;SDS011;36779;52.168;20.878;2024-02-14T08:29:59;20.60;;;7.20;;
50681;SDS011;36779;52.168;20.878;2024-02-14T08:32:33;15.60;;;7.30;;
50681;SDS011;36779;52.168;20.878;2024-02-14T08:35:06;20.40;;;7.30;;
50681;SDS011;36779;52.168;20.878;2024-02-14T08:37:43;17.00;;;7.20;;
50681;SDS011;36779;52.168;20.878;2024-02-14T08:40:15;18.30;;;7.80;;
50681;SDS011;36779;52.168;20.878;2024-02-14T08:42:48;18.60;;;7.20;;
50681;SDS011;36779;52.168;20.878;2024-02-14T08:45:20;19.20;;;6.70;;
50681;SDS011;36779;52.168;20.878;2024-02-14T08:47:52;14.10;;;6.80;;
50681;SDS011;36779;52.168;20.878;2024-02-14T08:50:25;17.50;;;7.00;;
50681;SDS011;36779;52.168;20.878;2024-02-14T08:52:59;19.90;;;8.00;;
50681;SDS011;36779;52.168;20.878;2024-02-14T08:55:38;18.50;;;7.30;;
50681;SDS011;36779;52.168;20.878;2024-02-14T08:58:10;19.70;;;7.40;;
50681;SDS011;36779;52.168;20.878;2024-02-14T09:00:43;15.70;;;6.40;;
50681;SDS011;36779;52.168;20.878;2024-02-14T09:03:26;16.80;;;6.20;;
50681;SDS011;36779;52.168;20.878;2024-02-14T09:06:06;20.70;;;6.50;;
50681;SDS011;36779;52.168;20.878;2024-02-14T09:08:43;18.60;;;6.50;;
50681;SDS011;36779;52.168;20.878;2024-02-14T09:11:16;13.70;;;6.60;;
50681;SDS011;36779;52.168;20.878;2024-02-14T09:13:52;15.20;;;6.30;;
50681;SDS011;36779;52.168;20.878;2024-02-14T09:16:28;13.20;;;6.10;;
50681;SDS011;36779;52.168;20.878;2024-02-14T09:19:08;8.30;;;4.50;;
50681;SDS011;36779;52.168;20.878;2024-02-14T09:21:42;12.50;;;5.20;;
50681;SDS011;36779;52.168;20.878;2024-02-14T09:24:14;13.60;;;5.20;;
50681;SDS011;36779;52.168;20.878;2024-02-14T09:26:47;11.60;;;4.30;;
50681;SDS011;36779;52.168;20.878;2024-02-14T09:29:20;9.80;;;3.70;;
50681;SDS011;36779;52.168;20.878;2024-02-14T09:31:53;10.10;;;4.00;;
50681;SDS011;36779;52.168;20.878;2024-02-14T09:34:25;10.00;;;3.40;;
50681;SDS011;36779;52.168;20.878;2024-02-14T09:36:57;11.50;;;3.90;;
50681;SDS011;36779;52.168;20.878;2024-02-14T09:39:30;9.90;;;4.00;;
50681;SDS011;36779;52.168;20.878;2024-02-14T09:42:08;9.40;;;4.00;;
50681;SDS011;36779;52.168;20.878;2024-02-14T09:44:43;5.60;;;2.80;;
50681;SDS011;36779;52.168;20.878;2024-02-14T09:47:18;14.40;;;5.00;;
50681;SDS011;36779;52.168;20.878;2024-02-14T09:49:51;8.40;;;3.70;;
50681;SDS011;36779;52.168;20.878;2024-02-14T09:52:24;5.90;;;2.50;;
50681;SDS011;36779;52.168;20.878;2024-02-14T09:54:57;8.80;;;2.60;;
50681;SDS011;36779;52.168;20.878;2024-02-14T09:57:30;8.60;;;2.90;;
50681;SDS011;36779;52.168;20.878;2024-02-14T10:00:06;6.60;;;2.60;;
50681;SDS011;36779;52.168;20.878;2024-02-14T10:02:40;7.10;;;2.60;;
50681;SDS011;36779;52.168;20.878;2024-02-14T10:05:12;5.70;;;2.40;;
50681;SDS011;36779;52.168;20.878;2024-02-14T10:07:45;6.90;;;2.80;;
50681;SDS011;36779;52.168;20.878;2024-02-14T10:10:17;6.60;;;2.70;;
50681;SDS011;36779;52.168;20.878;2024-02-14T10:12:51;19.10;;;4.40;;
50681;SDS011;36779;52.168;20.878;2024-02-14T10:15:24;5.20;;;2.30;;
50681;SDS011;36779;52.168;20.878;2024-02-14T10:17:56;10.80;;;2.60;;
50681;SDS011;36779;52.168;20.878;2024-02-14T10:20:30;9.70;;;3.50;;
50681;SDS011;36779;52.168;20.878;2024-02-14T10:23:04;4.90;;;2.50;;
50681;SDS011;36779;52.168;20.878;2024-02-14T10:25:41;12.80;;;3.50;;
50681;SDS011;36779;52.168;20.878;2024-02-14T10:28:14;8.90;;;3.10;;
50681;SDS011;36779;52.168;20.878;2024-02-14T10:30:47;13.10;;;4.40;;
50681;SDS011;36779;52.168;20.878;2024-02-14T10:33:20;5.30;;;2.10;;
50681;SDS011;36779;52.168;20.878;2024-02-14T10:35:56;5.10;;;2.30;;
50681;SDS011;36779;52.168;20.878;2024-02-14T10:38:35;12.40;;;4.60;;
50681;SDS011;36779;52.168;20.878;2024-02-14T10:41:07;8.30;;;3.80;;
50681;SDS011;36779;52.168;20.878;2024-02-14T10:43:42;7.00;;;2.50;;
50681;SDS011;36779;52.168;20.878;2024-02-14T10:46:18;5.70;;;2.60;;
50681;SDS011;36779;52.168;20.878;2024-02-14T10:48:56;12.60;;;4.30;;
50681;SDS011;36779;52.168;20.878;2024-02-14T10:51:35;5.80;;;2.00;;
50681;SDS011;36779;52.168;20.878;2024-02-14T10:54:11;12.70;;;4.40;;
50681;SDS011;36779;52.168;20.878;2024-02-14T10:56:49;4.00;;;1.80;;
50681;SDS011;36779;52.168;20.878;2024-02-14T10:59:24;9.10;;;3.20;;
50681;SDS011;36779;52.168;20.878;2024-02-14T11:02:02;7.00;;;2.30;;
50681;SDS011;36779;52.168;20.878;2024-02-14T11:04:35;7.60;;;2.60;;
50681;SDS011;36779;52.168;20.878;2024-02-14T11:07:10;5.90;;;1.60;;
50681;SDS011;36779;52.168;20.878;2024-02-14T11:09:44;6.00;;;2.40;;
50681;SDS011;36779;52.168;20.878;2024-02-14T11:12:16;7.60;;;2.10;;
50681;SDS011;36779;52.168;20.878;2024-02-14T11:14:53;5.00;;;2.00;;
50681;SDS011;36779;52.168;20.878;2024-02-14T11:17:32;11.70;;;3.70;;
50681;SDS011;36779;52.168;20.878;2024-02-14T11:20:13;7.60;;;2.70;;
50681;SDS011;36779;52.168;20.878;2024-02-14T11:22:52;5.40;;;2.50;;
50681;SDS011;36779;52.168;20.878;2024-02-14T11:25:29;5.90;;;2.00;;
50681;SDS011;36779;52.168;20.878;2024-02-14T11:28:13;3.70;;;1.70;;
50681;SDS011;36779;52.168;20.878;2024-02-14T11:30:49;5.00;;;1.80;;
50681;SDS011;36779;52.168;20.878;2024-02-14T11:33:24;5.10;;;1.90;;
50681;SDS011;36779;52.168;20.878;2024-02-14T11:35:56;6.30;;;2.50;;
50681;SDS011;36779;52.168;20.878;2024-02-14T11:38:34;5.80;;;2.40;;
50681;SDS011;36779;52.168;20.878;2024-02-14T11:41:09;3.60;;;1.50;;
50681;SDS011;36779;52.168;20.878;2024-02-14T11:43:51;6.00;;;1.70;;
50681;SDS011;36779;52.168;20.878;2024-02-14T11:46:23;21.40;;;5.50;;
50681;SDS011;36779;52.168;20.878;2024-02-14T11:49:23;4.30;;;2.00;;
50681;SDS011;36779;52.168;20.878;2024-02-14T11:51:56;5.60;;;1.70;;
50681;SDS011;36779;52.168;20.878;2024-02-14T11:54:29;3.50;;;1.30;;
50681;SDS011;36779;52.168;20.878;2024-02-14T11:57:03;3.90;;;1.50;;
50681;SDS011;36779;52.168;20.878;2024-02-14T11:59:40;7.40;;;3.00;;
50681;SDS011;36779;52.168;20.878;2024-02-14T12:04:50;16.00;;;5.20;;
50681;SDS011;36779;52.168;20.878;2024-02-14T12:07:24;3.10;;;1.50;;
50681;SDS011;36779;52.168;20.878;2024-02-14T12:09:57;4.50;;;2.20;;
50681;SDS011;36779;52.168;20.878;2024-02-14T12:12:30;6.40;;;2.40;;
50681;SDS011;36779;52.168;20.878;2024-02-14T12:15:03;19.00;;;3.70;;
50681;SDS011;36779;52.168;20.878;2024-02-14T12:17:40;4.80;;;1.30;;
50681;SDS011;36779;52.168;20.878;2024-02-14T12:20:13;3.70;;;1.40;;
50681;SDS011;36779;52.168;20.878;2024-02-14T12:22:46;11.40;;;3.10;;
50681;SDS011;36779;52.168;20.878;2024-02-14T12:25:23;12.10;;;4.10;;
50681;SDS011;36779;52.168;20.878;2024-02-14T12:27:56;4.50;;;2.00;;
50681;SDS011;36779;52.168;20.878;2024-02-14T12:30:41;3.00;;;1.60;;
50681;SDS011;36779;52.168;20.878;2024-02-14T12:33:19;4.00;;;1.60;;
50681;SDS011;36779;52.168;20.878;2024-02-14T12:35:54;7.60;;;1.80;;
50681;SDS011;36779;52.168;20.878;2024-02-14T12:38:28;3.00;;;1.30;;
50681;SDS011;36779;52.168;20.878;2024-02-14T12:41:04;3.20;;;1.40;;
50681;SDS011;36779;52.168;20.878;2024-02-14T12:43:40;4.30;;;1.60;;
50681;SDS011;36779;52.168;20.878;2024-02-14T12:46:13;5.20;;;1.50;;
50681;SDS011;36779;52.168;20.878;2024-02-14T12:48:49;4.10;;;1.70;;
50681;SDS011;36779;52.168;20.878;2024-02-14T12:51:27;6.90;;;2.00;;
50681;SDS011;36779;52.168;20.878;2024-02-14T12:54:03;3.90;;;1.80;;
50681;SDS011;36779;52.168;20.878;2024-02-14T12:56:45;10.20;;;2.30;;
50681;SDS011;36779;52.168;20.878;2024-02-14T12:59:20;14.80;;;3.90;;
50681;SDS011;36779;52.168;20.878;2024-02-14T13:01:53;11.70;;;2.50;;
50681;SDS011;36779;52.168;20.878;2024-02-14T13:04:26;8.00;;;3.60;;
50681;SDS011;36779;52.168;20.878;2024-02-14T13:07:06;12.30;;;4.10;;
50681;SDS011;36779;52.168;20.878;2024-02-14T13:09:42;10.80;;;2.80;;
50681;SDS011;36779;52.168;20.878;2024-02-14T13:12:15;3.90;;;2.10;;
50681;SDS011;36779;52.168;20.878;2024-02-14T13:14:48;3.50;;;1.30;;
50681;SDS011;36779;52.168;20.878;2024-02-14T13:17:21;3.70;;;1.40;;
50681;SDS011;36779;52.168;20.878;2024-02-14T13:20:02;6.30;;;2.50;;
50681;SDS011;36779;52.168;20.878;2024-02-14T13:22:38;3.30;;;1.70;;
50681;SDS011;36779;52.168;20.878;2024-02-14T13:25:11;4.90;;;2.10;;
50681;SDS011;36779;52.168;20.878;2024-02-14T13:27:45;9.80;;;3.00;;
50681;SDS011;36779;52.168;20.878;2024-02-14T13:30:18;15.20;;;4.70;;
50681;SDS011;36779;52.168;20.878;2024-02-14T13:32:51;7.10;;;2.10;;
50681;SDS011;36779;52.168;20.878;2024-02-14T13:35:23;8.20;;;3.80;;
50681;SDS011;36779;52.168;20.878;2024-02-14T13:37:56;6.00;;;2.40;;
50681;SDS011;36779;52.168;20.878;2024-02-14T13:40:28;5.70;;;1.50;;
50681;SDS011;36779;52.168;20.878;2024-02-14T13:43:01;3.80;;;1.40;;
50681;SDS011;36779;52.168;20.878;2024-02-14T13:45:40;7.00;;;2.70;;
50681;SDS011;36779;52.168;20.878;2024-02-14T13:48:13;13.30;;;4.20;;
50681;SDS011;36779;52.168;20.878;2024-02-14T13:50:46;5.60;;;2.10;;
50681;SDS011;36779;52.168;20.878;2024-02-14T13:53:20;5.40;;;1.70;;
50681;SDS011;36779;52.168;20.878;2024-02-14T13:55:53;4.40;;;1.90;;
50681;SDS011;36779;52.168;20.878;2024-02-14T13:58:25;4.50;;;1.70;;
50681;SDS011;36779;52.168;20.878;2024-02-14T14:00:57;7.90;;;2.50;;
50681;SDS011;36779;52.168;20.878;2024-02-14T14:03:30;5.10;;;2.00;;
50681;SDS011;36779;52.168;20.878;2024-02-14T14:06:04;4.90;;;1.90;;
50681;SDS011;36779;52.168;20.878;2024-02-14T14:08:40;5.30;;;2.00;;
50681;SDS011;36779;52.168;20.878;2024-02-14T14:11:14;3.60;;;2.00;;
50681;SDS011;36779;52.168;20.878;2024-02-14T14:13:48;2.90;;;1.40;;
50681;SDS011;36779;52.168;20.878;2024-02-14T14:16:23;6.00;;;1.60;;
50681;SDS011;36779;52.168;20.878;2024-02-14T14:18:57;5.00;;;2.00;;
50681;SDS011;36779;52.168;20.878;2024-02-14T14:21:39;5.00;;;1.80;;
50681;SDS011;36779;52.168;20.878;2024-02-14T14:24:29;5.60;;;1.80;;
50681;SDS011;36779;52.168;20.878;2024-02-14T14:27:05;6.70;;;1.80;;
50681;SDS011;36779;52.168;20.878;2024-02-14T14:29:53;6.10;;;2.00;;
50681;SDS011;36779;52.168;20.878;2024-02-14T14:32:31;6.40;;;1.50;;
50681;SDS011;36779;52.168;20.878;2024-02-14T14:35:04;5.10;;;1.90;;
50681;SDS011;36779;52.168;20.878;2024-02-14T14:38:00;4.10;;;1.90;;
50681;SDS011;36779;52.168;20.878;2024-02-14T14:40:42;4.80;;;1.70;;
50681;SDS011;36779;52.168;20.878;2024-02-14T14:43:24;5.00;;;1.90;;
50681;SDS011;36779;52.168;20.878;2024-02-14T14:46:11;3.60;;;1.50;;
50681;SDS011;36779;52.168;20.878;2024-02-14T14:49:14;12.30;;;3.20;;
50681;SDS011;36779;52.168;20.878;2024-02-14T14:51:52;7.50;;;2.30;;
50681;SDS011;36779;52.168;20.878;2024-02-14T14:54:26;9.00;;;2.10;;
50681;SDS011;36779;52.168;20.878;2024-02-14T14:56:59;4.00;;;1.70;;
50681;SDS011;36779;52.168;20.878;2024-02-14T14:59:36;5.30;;;2.00;;
50681;SDS011;36779;52.168;20.878;2024-02-14T15:02:08;4.20;;;1.80;;
50681;SDS011;36779;52.168;20.878;2024-02-14T15:04:41;7.30;;;2.90;;
50681;SDS011;36779;52.168;20.878;2024-02-14T15:07:16;4.10;;;2.20;;
50681;SDS011;36779;52.168;20.878;2024-02-14T15:09:52;6.70;;;2.40;;
50681;SDS011;36779;52.168;20.878;2024-02-14T15:12:25;7.70;;;2.60;;
50681;SDS011;36779;52.168;20.878;2024-02-14T15:14:57;8.80;;;3.00;;
50681;SDS011;36779;52.168;20.878;2024-02-14T15:17:30;8.70;;;3.60;;